sensor_id;sensor_type;location;lat;lon;timestamp;pressure;altitude;pressure_sealevel;temperature;humidity
79612;BME280;69094;48.154;11.536;2023-06-26T00:02:10;95579.44;;;19.30;44.87
79612;BME280;69094;48.154;11.536;2023-06-26T00:04:36;95576.66;;;19.30;44.97
79612;BME280;69094;48.154;11.536;2023-06-26T00:07:03;95572.31;;;19.29;45.22
79612;BME280;69094;48.154;11.536;2023-06-26T00:09:28;95571.44;;;19.22;45.29
79612;BME280;69094;48.154;11.536;2023-06-26T00:11:54;95571.03;;;19.20;45.46
79612;BME280;69094;48.154;11.536;2023-06-26T00:14:19;95574.97;;;19.19;45.04
79612;BME280;69094;48.154;11.536;2023-06-26T00:16:46;95572.56;;;19.13;45.44
79612;BME280;69094;48.154;11.536;2023-06-26T00:19:12;95569.81;;;19.13;45.40
79612;BME280;69094;48.154;11.536;2023-06-26T00:21:37;95576.13;;;19.14;45.14
79612;BME280;69094;48.154;11.536;2023-06-26T00:24:02;95573.00;;;19.19;44.57
79612;BME280;69094;48.154;11.536;2023-06-26T00:26:28;95572.59;;;19.17;43.68
79612;BME280;69094;48.154;11.536;2023-06-26T00:28:53;95575.34;;;19.17;43.94
79612;BME280;69094;48.154;11.536;2023-06-26T00:31:18;95580.06;;;19.17;43.93
79612;BME280;69094;48.154;11.536;2023-06-26T00:33:44;95574.13;;;19.11;44.23
79612;BME280;69094;48.154;11.536;2023-06-26T00:36:09;95576.81;;;19.04;44.69
79612;BME280;69094;48.154;11.536;2023-06-26T00:38:35;95580.25;;;18.93;45.15
79612;BME280;69094;48.154;11.536;2023-06-26T00:41:00;95579.06;;;18.91;44.94
79612;BME280;69094;48.154;11.536;2023-06-26T00:43:26;95575.97;;;19.00;45.08
79612;BME280;69094;48.154;11.536;2023-06-26T00:45:51;95583.09;;;19.01;44.68
79612;BME280;69094;48.154;11.536;2023-06-26T00:48:17;95573.94;;;18.93;44.73
79612;BME280;69094;48.154;11.536;2023-06-26T00:50:42;95575.88;;;18.89;45.05
79612;BME280;69094;48.154;11.536;2023-06-26T00:53:09;95577.09;;;18.95;45.31
79612;BME280;69094;48.154;11.536;2023-06-26T00:55:35;95584.97;;;18.93;45.54
79612;BME280;69094;48.154;11.536;2023-06-26T00:58:01;95579.31;;;18.79;45.98
79612;BME280;69094;48.154;11.536;2023-06-26T01:00:27;95575.78;;;18.78;46.20
79612;BME280;69094;48.154;11.536;2023-06-26T01:02:52;95583.63;;;18.76;45.97
79612;BME280;69094;48.154;11.536;2023-06-26T01:05:18;95572.16;;;18.74;45.20
79612;BME280;69094;48.154;11.536;2023-06-26T01:07:49;95578.91;;;18.77;45.53
79612;BME280;69094;48.154;11.536;2023-06-26T01:10:15;95561.47;;;18.69;45.43
79612;BME280;69094;48.154;11.536;2023-06-26T01:12:40;95574.81;;;18.67;45.72
79612;BME280;69094;48.154;11.536;2023-06-26T01:15:06;95566.38;;;18.52;46.36
79612;BME280;69094;48.154;11.536;2023-06-26T01:17:33;95570.31;;;18.51;46.23
79612;BME280;69094;48.154;11.536;2023-06-26T01:20:03;95567.03;;;18.39;47.32
79612;BME280;69094;48.154;11.536;2023-06-26T01:23:05;95571.31;;;18.36;47.12
79612;BME280;69094;48.154;11.536;2023-06-26T01:25:47;95571.59;;;18.27;47.11
79612;BME280;69094;48.154;11.536;2023-06-26T01:28:20;95574.00;;;18.29;47.21
79612;BME280;69094;48.154;11.536;2023-06-26T01:30:46;95573.19;;;18.28;47.26
79612;BME280;69094;48.154;11.536;2023-06-26T01:33:13;95568.81;;;18.24;47.22
79612;BME280;69094;48.154;11.536;2023-06-26T01:35:39;95566.75;;;18.17;47.25
79612;BME280;69094;48.154;11.536;2023-06-26T01:40:37;95565.81;;;18.06;47.47
79612;BME280;69094;48.154;11.536;2023-06-26T01:43:03;95572.50;;;18.05;47.74
79612;BME280;69094;48.154;11.536;2023-06-26T01:45:30;95564.81;;;17.91;47.98
79612;BME280;69094;48.154;11.536;2023-06-26T01:47:59;95561.69;;;17.93;48.15
79612;BME280;69094;48.154;11.536;2023-06-26T01:50:28;95559.75;;;17.93;48.22
79612;BME280;69094;48.154;11.536;2023-06-26T01:53:04;95561.28;;;17.91;48.34
79612;BME280;69094;48.154;11.536;2023-06-26T01:55:41;95558.16;;;17.92;48.66
79612;BME280;69094;48.154;11.536;2023-06-26T01:58:09;95560.06;;;17.88;48.72
79612;BME280;69094;48.154;11.536;2023-06-26T02:00:36;95558.38;;;17.80;48.84
79612;BME280;69094;48.154;11.536;2023-06-26T02:03:02;95553.50;;;17.70;49.34
79612;BME280;69094;48.154;11.536;2023-06-26T02:05:28;95552.28;;;17.67;49.53
79612;BME280;69094;48.154;11.536;2023-06-26T02:07:56;95554.91;;;17.60;49.58
79612;BME280;69094;48.154;11.536;2023-06-26T02:10:21;95562.00;;;17.61;49.67
79612;BME280;69094;48.154;11.536;2023-06-26T02:12:46;95564.28;;;17.55;50.00
79612;BME280;69094;48.154;11.536;2023-06-26T02:15:12;95563.50;;;17.55;49.94
79612;BME280;69094;48.154;11.536;2023-06-26T02:17:37;95569.00;;;17.55;50.06
79612;BME280;69094;48.154;11.536;2023-06-26T02:20:02;95563.41;;;17.51;50.48
79612;BME280;69094;48.154;11.536;2023-06-26T02:22:28;95566.91;;;17.48;50.57
79612;BME280;69094;48.154;11.536;2023-06-26T02:24:54;95566.50;;;17.46;50.84
79612;BME280;69094;48.154;11.536;2023-06-26T02:27:19;95568.88;;;17.48;50.68
79612;BME280;69094;48.154;11.536;2023-06-26T02:29:44;95570.06;;;17.47;50.94
79612;BME280;69094;48.154;11.536;2023-06-26T02:32:10;95565.81;;;17.53;50.49
79612;BME280;69094;48.154;11.536;2023-06-26T02:34:35;95568.53;;;17.49;50.75
79612;BME280;69094;48.154;11.536;2023-06-26T02:37:01;95565.28;;;17.43;50.65
79612;BME280;69094;48.154;11.536;2023-06-26T02:39:27;95560.63;;;17.48;50.80
79612;BME280;69094;48.154;11.536;2023-06-26T02:41:52;95567.53;;;17.38;51.39
79612;BME280;69094;48.154;11.536;2023-06-26T02:44:18;95566.38;;;17.39;51.15
79612;BME280;69094;48.154;11.536;2023-06-26T02:46:43;95569.06;;;17.35;51.46
79612;BME280;69094;48.154;11.536;2023-06-26T02:49:09;95566.28;;;17.32;51.62
79612;BME280;69094;48.154;11.536;2023-06-26T02:51:34;95563.53;;;17.32;51.43
79612;BME280;69094;48.154;11.536;2023-06-26T02:54:00;95556.44;;;17.31;51.36
79612;BME280;69094;48.154;11.536;2023-06-26T02:56:26;95563.03;;;17.26;51.75
79612;BME280;69094;48.154;11.536;2023-06-26T02:58:55;95556.81;;;17.29;51.29
79612;BME280;69094;48.154;11.536;2023-06-26T03:01:21;95570.63;;;17.33;51.37
79612;BME280;69094;48.154;11.536;2023-06-26T03:03:46;95565.84;;;17.30;51.31
79612;BME280;69094;48.154;11.536;2023-06-26T03:06:13;95568.47;;;17.22;51.68
79612;BME280;69094;48.154;11.536;2023-06-26T03:08:39;95563.03;;;17.26;51.75
79612;BME280;69094;48.154;11.536;2023-06-26T03:11:05;95562.97;;;17.22;52.07
79612;BME280;69094;48.154;11.536;2023-06-26T03:13:35;95562.19;;;17.22;51.91
79612;BME280;69094;48.154;11.536;2023-06-26T03:16:01;95566.16;;;17.25;51.72
79612;BME280;69094;48.154;11.536;2023-06-26T03:18:27;95562.13;;;17.18;52.35
79612;BME280;69094;48.154;11.536;2023-06-26T03:20:53;95564.56;;;17.23;51.86
79612;BME280;69094;48.154;11.536;2023-06-26T03:23:19;95562.97;;;17.22;51.84
79612;BME280;69094;48.154;11.536;2023-06-26T03:25:45;95556.31;;;17.23;51.36
79612;BME280;69094;48.154;11.536;2023-06-26T03:28:10;95559.06;;;17.23;51.46
79612;BME280;69094;48.154;11.536;2023-06-26T03:30:36;95559.06;;;17.23;50.98
79612;BME280;69094;48.154;11.536;2023-06-26T03:33:01;95561.44;;;17.25;51.35
79612;BME280;69094;48.154;11.536;2023-06-26T03:35:26;95560.97;;;17.19;51.60
79612;BME280;69094;48.154;11.536;2023-06-26T03:37:52;95557.84;;;17.21;51.59
79612;BME280;69094;48.154;11.536;2023-06-26T03:40:17;95566.41;;;17.16;51.87
79612;BME280;69094;48.154;11.536;2023-06-26T03:42:43;95564.38;;;17.13;52.20
79612;BME280;69094;48.154;11.536;2023-06-26T03:45:08;95562.88;;;17.15;52.14
79612;BME280;69094;48.154;11.536;2023-06-26T03:47:33;95559.81;;;17.20;51.25
79612;BME280;69094;48.154;11.536;2023-06-26T03:49:59;95569.69;;;17.25;51.44
79612;BME280;69094;48.154;11.536;2023-06-26T03:52:24;95569.22;;;17.19;51.57
79612;BME280;69094;48.154;11.536;2023-06-26T03:54:50;95563.41;;;17.25;51.23
79612;BME280;69094;48.154;11.536;2023-06-26T03:57:15;95559.91;;;17.28;51.04
79612;BME280;69094;48.154;11.536;2023-06-26T03:59:40;95561.50;;;17.29;51.21
79612;BME280;69094;48.154;11.536;2023-06-26T04:02:06;95558.03;;;17.32;51.40
79612;BME280;69094;48.154;11.536;2023-06-26T04:04:31;95567.06;;;17.32;51.34
79612;BME280;69094;48.154;11.536;2023-06-26T04:06:56;95563.53;;;17.32;51.41
79612;BME280;69094;48.154;11.536;2023-06-26T04:09:24;95560.81;;;17.35;50.78
79612;BME280;69094;48.154;11.536;2023-06-26T04:11:49;95567.19;;;17.39;51.01
79612;BME280;69094;48.154;11.536;2023-06-26T04:14:15;95556.22;;;17.43;50.85
79612;BME280;69094;48.154;11.536;2023-06-26T04:16:40;95561.84;;;17.50;51.08
79612;BME280;69094;48.154;11.536;2023-06-26T04:19:05;95561.06;;;17.50;50.93
79612;BME280;69094;48.154;11.536;2023-06-26T04:21:31;95562.38;;;17.59;50.79
79612;BME280;69094;48.154;11.536;2023-06-26T04:23:56;95558.56;;;17.68;50.38
79612;BME280;69094;48.154;11.536;2023-06-26T04:26:22;95566.94;;;17.75;50.57
79612;BME280;69094;48.154;11.536;2023-06-26T04:28:47;95562.00;;;17.84;50.07
79612;BME280;69094;48.154;11.536;2023-06-26T04:31:13;95569.53;;;17.91;49.70
79612;BME280;69094;48.154;11.536;2023-06-26T04:33:39;95568.84;;;17.97;49.03
79612;BME280;69094;48.154;11.536;2023-06-26T04:36:05;95569.59;;;17.94;49.71
79612;BME280;69094;48.154;11.536;2023-06-26T04:38:33;95566.56;;;18.03;49.79
79612;BME280;69094;48.154;11.536;2023-06-26T04:41:00;95568.88;;;18.01;50.00
79612;BME280;69094;48.154;11.536;2023-06-26T04:43:26;95575.28;;;18.08;49.30
79612;BME280;69094;48.154;11.536;2023-06-26T04:45:51;95567.94;;;18.16;49.13
79612;BME280;69094;48.154;11.536;2023-06-26T04:48:16;95571.94;;;18.22;48.75
79612;BME280;69094;48.154;11.536;2023-06-26T04:50:42;95574.34;;;18.27;48.49
79612;BME280;69094;48.154;11.536;2023-06-26T04:53:07;95569.72;;;18.35;47.96
79612;BME280;69094;48.154;11.536;2023-06-26T04:55:33;95566.34;;;18.49;47.76
79612;BME280;69094;48.154;11.536;2023-06-26T04:57:58;95570.31;;;18.51;47.38
79612;BME280;69094;48.154;11.536;2023-06-26T05:00:24;95571.19;;;18.59;47.51
79612;BME280;69094;48.154;11.536;2023-06-26T05:02:50;95569.72;;;18.69;47.35
79612;BME280;69094;48.154;11.536;2023-06-26T05:05:25;95562.69;;;18.75;47.33
79612;BME280;69094;48.154;11.536;2023-06-26T05:07:52;95574.22;;;18.81;46.53
79612;BME280;69094;48.154;11.536;2023-06-26T05:10:18;95571.56;;;18.91;47.20
79612;BME280;69094;48.154;11.536;2023-06-26T05:12:43;95569.31;;;19.01;46.51
79612;BME280;69094;48.154;11.536;2023-06-26T05:15:09;95572.16;;;19.11;46.01
79612;BME280;69094;48.154;11.536;2023-06-26T05:17:34;95575.34;;;19.17;46.96
79612;BME280;69094;48.154;11.536;2023-06-26T05:19:59;95576.25;;;19.28;46.43
79612;BME280;69094;48.154;11.536;2023-06-26T05:22:26;95569.66;;;19.44;45.93
79612;BME280;69094;48.154;11.536;2023-06-26T05:24:54;95568.47;;;19.45;45.83
79612;BME280;69094;48.154;11.536;2023-06-26T05:27:20;95575.31;;;19.58;45.75
79612;BME280;69094;48.154;11.536;2023-06-26T05:29:48;95571.84;;;19.68;44.87
79612;BME280;69094;48.154;11.536;2023-06-26T05:32:15;95571.16;;;19.82;44.85
79612;BME280;69094;48.154;11.536;2023-06-26T05:34:45;95572.38;;;19.88;44.87
79612;BME280;69094;48.154;11.536;2023-06-26T05:37:14;95571.59;;;19.88;44.78
79612;BME280;69094;48.154;11.536;2023-06-26T05:39:42;95573.25;;;20.03;44.68
79612;BME280;69094;48.154;11.536;2023-06-26T05:42:08;95567.41;;;20.15;44.95
79612;BME280;69094;48.154;11.536;2023-06-26T05:44:33;95571.00;;;20.27;44.39
79612;BME280;69094;48.154;11.536;2023-06-26T05:46:59;95571.09;;;20.48;44.27
79612;BME280;69094;48.154;11.536;2023-06-26T05:49:24;95571.19;;;20.62;43.90
79612;BME280;69094;48.154;11.536;2023-06-26T05:51:50;95575.94;;;20.69;43.18
79612;BME280;69094;48.154;11.536;2023-06-26T05:54:15;95572.06;;;20.84;42.82
79612;BME280;69094;48.154;11.536;2023-06-26T05:56:41;95580.31;;;20.81;42.93
79612;BME280;69094;48.154;11.536;2023-06-26T05:59:07;95571.66;;;20.90;43.23
79612;BME280;69094;48.154;11.536;2023-06-26T06:01:33;95578.75;;;20.94;43.21
79612;BME280;69094;48.154;11.536;2023-06-26T06:03:59;95568.94;;;21.07;42.80
79612;BME280;69094;48.154;11.536;2023-06-26T06:06:25;95568.50;;;21.09;42.42
79612;BME280;69094;48.154;11.536;2023-06-26T06:08:50;95568.56;;;21.27;42.50
79612;BME280;69094;48.154;11.536;2023-06-26T06:11:16;95567.00;;;21.44;42.08
79612;BME280;69094;48.154;11.536;2023-06-26T06:13:41;95566.19;;;21.61;41.65
79612;BME280;69094;48.154;11.536;2023-06-26T06:16:06;95570.56;;;21.59;41.32
79612;BME280;69094;48.154;11.536;2023-06-26T06:18:32;95565.00;;;21.59;41.67
79612;BME280;69094;48.154;11.536;2023-06-26T06:20:57;95570.16;;;21.82;41.67
79612;BME280;69094;48.154;11.536;2023-06-26T06:23:23;95560.63;;;21.97;41.15
79612;BME280;69094;48.154;11.536;2023-06-26T06:25:48;95563.75;;;22.17;41.67
79612;BME280;69094;48.154;11.536;2023-06-26T06:28:13;95564.16;;;22.26;41.14
79612;BME280;69094;48.154;11.536;2023-06-26T06:30:41;95569.63;;;22.44;41.30
79612;BME280;69094;48.154;11.536;2023-06-26T06:33:06;95573.16;;;22.52;41.30
79612;BME280;69094;48.154;11.536;2023-06-26T06:35:32;95563.22;;;22.58;40.86
79612;BME280;69094;48.154;11.536;2023-06-26T06:37:57;95571.13;;;22.63;40.00
79612;BME280;69094;48.154;11.536;2023-06-26T06:40:22;95572.66;;;22.78;39.97
79612;BME280;69094;48.154;11.536;2023-06-26T06:42:48;95576.91;;;22.90;39.86
79612;BME280;69094;48.154;11.536;2023-06-26T06:45:13;95575.28;;;23.07;39.58
79612;BME280;69094;48.154;11.536;2023-06-26T06:47:38;95578.00;;;23.18;39.75
79612;BME280;69094;48.154;11.536;2023-06-26T06:50:04;95574.72;;;23.34;39.72
79612;BME280;69094;48.154;11.536;2023-06-26T06:52:42;95573.88;;;23.37;38.92
79612;BME280;69094;48.154;11.536;2023-06-26T06:55:08;95574.94;;;23.54;38.67
79612;BME280;69094;48.154;11.536;2023-06-26T06:57:36;95570.91;;;23.62;38.29
79612;BME280;69094;48.154;11.536;2023-06-26T07:00:04;95577.19;;;23.70;38.82
79612;BME280;69094;48.154;11.536;2023-06-26T07:02:30;95574.81;;;23.75;38.44
79612;BME280;69094;48.154;11.536;2023-06-26T07:04:55;95573.50;;;23.87;37.94
79612;BME280;69094;48.154;11.536;2023-06-26T07:07:21;95576.53;;;24.03;37.03
79612;BME280;69094;48.154;11.536;2023-06-26T07:09:46;95576.00;;;24.16;36.88
79612;BME280;69094;48.154;11.536;2023-06-26T07:12:11;95571.44;;;24.33;36.35
79612;BME280;69094;48.154;11.536;2023-06-26T07:14:37;95567.28;;;24.52;36.07
79612;BME280;69094;48.154;11.536;2023-06-26T07:17:02;95569.03;;;24.69;35.96
79612;BME280;69094;48.154;11.536;2023-06-26T07:19:27;95571.16;;;24.92;35.37
79612;BME280;69094;48.154;11.536;2023-06-26T07:21:53;95564.84;;;25.15;35.24
79612;BME280;69094;48.154;11.536;2023-06-26T07:24:18;95568.53;;;25.35;34.41
79612;BME280;69094;48.154;11.536;2023-06-26T07:26:44;95571.53;;;25.48;33.79
79612;BME280;69094;48.154;11.536;2023-06-26T07:29:09;95573.78;;;25.57;33.84
79612;BME280;69094;48.154;11.536;2023-06-26T07:31:34;95569.38;;;25.83;34.28
79612;BME280;69094;48.154;11.536;2023-06-26T07:34:00;95565.66;;;26.13;33.97
79612;BME280;69094;48.154;11.536;2023-06-26T07:36:25;95566.25;;;26.25;33.64
79612;BME280;69094;48.154;11.536;2023-06-26T07:38:51;95576.00;;;26.36;33.88
79612;BME280;69094;48.154;11.536;2023-06-26T07:41:16;95574.50;;;26.92;33.02
79612;BME280;69094;48.154;11.536;2023-06-26T07:43:42;95574.50;;;26.92;32.47
79612;BME280;69094;48.154;11.536;2023-06-26T07:46:07;95575.06;;;27.39;32.02
79612;BME280;69094;48.154;11.536;2023-06-26T07:48:32;95586.09;;;27.46;32.13
79612;BME280;69094;48.154;11.536;2023-06-26T07:50:58;95577.63;;;27.99;30.88
79612;BME280;69094;48.154;11.536;2023-06-26T07:53:23;95583.56;;;27.68;31.77
79612;BME280;69094;48.154;11.536;2023-06-26T07:55:48;95583.84;;;27.90;31.34
79612;BME280;69094;48.154;11.536;2023-06-26T07:58:14;95590.91;;;28.11;31.54
79612;BME280;69094;48.154;11.536;2023-06-26T08:00:40;95576.78;;;28.31;31.38
79612;BME280;69094;48.154;11.536;2023-06-26T08:03:05;95581.06;;;28.52;30.38
79612;BME280;69094;48.154;11.536;2023-06-26T08:05:31;95571.75;;;28.85;29.74
79612;BME280;69094;48.154;11.536;2023-06-26T08:07:56;95575.31;;;28.85;29.76
79612;BME280;69094;48.154;11.536;2023-06-26T08:10:22;95574.94;;;29.12;29.64
79612;BME280;69094;48.154;11.536;2023-06-26T08:12:47;95572.03;;;29.41;29.11
79612;BME280;69094;48.154;11.536;2023-06-26T08:15:14;95574.63;;;29.61;28.99
79612;BME280;69094;48.154;11.536;2023-06-26T08:17:39;95560.28;;;29.47;28.80
79612;BME280;69094;48.154;11.536;2023-06-26T08:20:05;95561.63;;;29.68;29.06
79612;BME280;69094;48.154;11.536;2023-06-26T08:22:33;95561.75;;;30.12;28.69
79612;BME280;69094;48.154;11.536;2023-06-26T08:24:58;95564.88;;;30.26;27.86
79612;BME280;69094;48.154;11.536;2023-06-26T08:27:24;95568.84;;;30.38;29.18
79612;BME280;69094;48.154;11.536;2023-06-26T08:29:49;95564.75;;;30.30;28.26
79612;BME280;69094;48.154;11.536;2023-06-26T08:32:14;95573.84;;;30.78;27.11
79612;BME280;69094;48.154;11.536;2023-06-26T08:34:40;95570.56;;;30.80;27.09
79612;BME280;69094;48.154;11.536;2023-06-26T08:37:05;95572.00;;;30.62;27.32
79612;BME280;69094;48.154;11.536;2023-06-26T08:39:34;95568.03;;;30.73;27.47
79612;BME280;69094;48.154;11.536;2023-06-26T08:42:00;95562.09;;;30.48;26.98
79612;BME280;69094;48.154;11.536;2023-06-26T08:44:25;95565.03;;;30.45;27.79
79612;BME280;69094;48.154;11.536;2023-06-26T08:46:51;95564.22;;;31.10;26.66
79612;BME280;69094;48.154;11.536;2023-06-26T08:49:56;95562.75;;;31.59;26.37
79612;BME280;69094;48.154;11.536;2023-06-26T08:52:23;95569.44;;;32.02;25.69
79612;BME280;69094;48.154;11.536;2023-06-26T08:54:54;95563.69;;;32.24;24.70
79612;BME280;69094;48.154;11.536;2023-06-26T08:57:22;95565.28;;;31.66;25.61
79612;BME280;69094;48.154;11.536;2023-06-26T08:59:48;95565.91;;;32.20;24.87
79612;BME280;69094;48.154;11.536;2023-06-26T09:02:14;95557.59;;;32.44;24.23
79612;BME280;69094;48.154;11.536;2023-06-26T09:04:40;95558.50;;;32.04;25.04
79612;BME280;69094;48.154;11.536;2023-06-26T09:07:06;95557.81;;;32.50;24.46
79612;BME280;69094;48.154;11.536;2023-06-26T09:09:32;95559.66;;;32.62;23.87
79612;BME280;69094;48.154;11.536;2023-06-26T09:11:57;95552.72;;;32.91;23.58
79612;BME280;69094;48.154;11.536;2023-06-26T09:14:23;95548.16;;;33.12;23.02
79612;BME280;69094;48.154;11.536;2023-06-26T09:16:49;95550.25;;;32.74;23.10
79612;BME280;69094;48.154;11.536;2023-06-26T09:19:15;95542.59;;;32.66;23.59
79612;BME280;69094;48.154;11.536;2023-06-26T09:21:41;95547.59;;;32.71;23.30
79612;BME280;69094;48.154;11.536;2023-06-26T09:24:09;95542.69;;;33.08;22.40
79612;BME280;69094;48.154;11.536;2023-06-26T09:26:39;95542.53;;;33.54;22.34
79612;BME280;69094;48.154;11.536;2023-06-26T09:29:06;95534.72;;;33.49;22.08
79612;BME280;69094;48.154;11.536;2023-06-26T09:31:33;95533.16;;;33.39;22.31
79612;BME280;69094;48.154;11.536;2023-06-26T09:33:59;95543.13;;;33.16;22.81
79612;BME280;69094;48.154;11.536;2023-06-26T09:36:28;95525.03;;;33.41;20.82
79612;BME280;69094;48.154;11.536;2023-06-26T09:38:54;95530.03;;;33.79;20.59
79612;BME280;69094;48.154;11.536;2023-06-26T09:41:20;95533.09;;;34.39;19.95
79612;BME280;69094;48.154;11.536;2023-06-26T09:43:46;95525.53;;;34.21;20.53
79612;BME280;69094;48.154;11.536;2023-06-26T09:46:31;95526.66;;;33.90;21.01
79612;BME280;69094;48.154;11.536;2023-06-26T09:49:03;95523.75;;;34.08;21.22
79612;BME280;69094;48.154;11.536;2023-06-26T09:51:33;95516.09;;;33.76;20.28
79612;BME280;69094;48.154;11.536;2023-06-26T09:54:02;95523.91;;;33.47;19.73
79612;BME280;69094;48.154;11.536;2023-06-26T09:56:31;95515.66;;;33.68;19.98
79612;BME280;69094;48.154;11.536;2023-06-26T09:58:58;95517.75;;;33.16;21.31
79612;BME280;69094;48.154;11.536;2023-06-26T10:01:24;95514.53;;;31.88;22.17
79612;BME280;69094;48.154;11.536;2023-06-26T10:03:50;95507.59;;;31.62;22.36
79612;BME280;69094;48.154;11.536;2023-06-26T10:06:22;95512.41;;;32.11;22.01
79612;BME280;69094;48.154;11.536;2023-06-26T10:08:50;95515.31;;;32.81;21.04
79612;BME280;69094;48.154;11.536;2023-06-26T10:11:19;95521.94;;;33.30;20.33
79612;BME280;69094;48.154;11.536;2023-06-26T10:13:49;95503.06;;;33.45;20.23
79612;BME280;69094;48.154;11.536;2023-06-26T10:16:23;95509.06;;;33.95;19.96
79612;BME280;69094;48.154;11.536;2023-06-26T10:18:55;95506.84;;;34.77;18.51
79612;BME280;69094;48.154;11.536;2023-06-26T10:21:22;95505.16;;;34.56;18.32
79612;BME280;69094;48.154;11.536;2023-06-26T10:23:49;95504.19;;;34.44;18.68
79612;BME280;69094;48.154;11.536;2023-06-26T10:26:19;95507.38;;;33.88;19.59
79612;BME280;69094;48.154;11.536;2023-06-26T10:28:47;95499.41;;;32.41;21.23
79612;BME280;69094;48.154;11.536;2023-06-26T10:31:20;95509.41;;;32.42;21.17
79612;BME280;69094;48.154;11.536;2023-06-26T10:33:48;95504.59;;;33.22;19.80
79612;BME280;69094;48.154;11.536;2023-06-26T10:36:15;95504.69;;;33.94;18.83
79612;BME280;69094;48.154;11.536;2023-06-26T10:39:04;95499.34;;;34.74;18.27
79612;BME280;69094;48.154;11.536;2023-06-26T10:41:39;95497.31;;;35.04;17.64
79612;BME280;69094;48.154;11.536;2023-06-26T10:44:08;95505.56;;;34.63;18.34
79612;BME280;69094;48.154;11.536;2023-06-26T10:46:55;95498.19;;;33.79;18.93
79612;BME280;69094;48.154;11.536;2023-06-26T10:49:27;95495.88;;;33.77;19.55
79612;BME280;69094;48.154;11.536;2023-06-26T10:51:53;95496.16;;;34.27;18.58
79612;BME280;69094;48.154;11.536;2023-06-26T10:54:20;95488.06;;;34.35;18.90
79612;BME280;69094;48.154;11.536;2023-06-26T10:56:50;95488.66;;;34.24;18.83
79612;BME280;69094;48.154;11.536;2023-06-26T10:59:18;95481.31;;;34.18;19.44
79612;BME280;69094;48.154;11.536;2023-06-26T11:01:46;95482.34;;;33.81;19.73
79612;BME280;69094;48.154;11.536;2023-06-26T11:04:13;95476.19;;;34.16;19.68
79612;BME280;69094;48.154;11.536;2023-06-26T11:06:41;95480.44;;;33.87;20.00
79612;BME280;69094;48.154;11.536;2023-06-26T11:09:15;95469.06;;;32.45;21.17
79612;BME280;69094;48.154;11.536;2023-06-26T11:11:56;95491.72;;;32.69;20.79
79612;BME280;69094;48.154;11.536;2023-06-26T11:14:29;95483.44;;;33.51;19.59
79612;BME280;69094;48.154;11.536;2023-06-26T11:16:56;95483.50;;;34.38;18.90
79612;BME280;69094;48.154;11.536;2023-06-26T11:19:22;95478.44;;;34.27;18.83
79612;BME280;69094;48.154;11.536;2023-06-26T11:21:47;95481.13;;;34.75;18.51
79612;BME280;69094;48.154;11.536;2023-06-26T11:24:13;95476.25;;;34.76;19.20
79612;BME280;69094;48.154;11.536;2023-06-26T11:26:42;95480.00;;;34.58;18.94
79612;BME280;69094;48.154;11.536;2023-06-26T11:29:09;95483.38;;;34.71;20.07
79612;BME280;69094;48.154;11.536;2023-06-26T11:31:36;95483.84;;;34.99;19.98
79612;BME280;69094;48.154;11.536;2023-06-26T11:34:04;95483.44;;;33.51;20.77
79612;BME280;69094;48.154;11.536;2023-06-26T11:36:31;95484.28;;;32.99;22.04
79612;BME280;69094;48.154;11.536;2023-06-26T11:39:01;95481.25;;;33.55;20.96
79612;BME280;69094;48.154;11.536;2023-06-26T11:41:29;95481.72;;;34.25;19.74
79612;BME280;69094;48.154;11.536;2023-06-26T11:43:55;95482.84;;;34.58;20.26
79612;BME280;69094;48.154;11.536;2023-06-26T11:46:22;95476.84;;;34.94;19.31
79612;BME280;69094;48.154;11.536;2023-06-26T11:48:48;95475.06;;;35.27;18.57
79612;BME280;69094;48.154;11.536;2023-06-26T11:51:14;95475.03;;;35.42;18.56
79612;BME280;69094;48.154;11.536;2023-06-26T11:53:43;95472.28;;;35.47;18.68
79612;BME280;69094;48.154;11.536;2023-06-26T11:56:10;95471.19;;;35.09;18.50
79612;BME280;69094;48.154;11.536;2023-06-26T11:58:37;95466.28;;;35.25;18.33
79612;BME280;69094;48.154;11.536;2023-06-26T12:01:17;95469.91;;;34.81;17.72
79612;BME280;69094;48.154;11.536;2023-06-26T12:03:43;95469.59;;;34.49;17.86
79612;BME280;69094;48.154;11.536;2023-06-26T12:06:09;95459.16;;;34.55;18.21
79612;BME280;69094;48.154;11.536;2023-06-26T12:08:34;95464.25;;;34.51;17.96
79612;BME280;69094;48.154;11.536;2023-06-26T12:11:00;95462.06;;;34.46;18.78
79612;BME280;69094;48.154;11.536;2023-06-26T12:13:26;95469.25;;;34.86;18.57
79612;BME280;69094;48.154;11.536;2023-06-26T12:15:51;95456.34;;;34.55;19.09
79612;BME280;69094;48.154;11.536;2023-06-26T12:18:17;95459.28;;;34.76;19.10
79612;BME280;69094;48.154;11.536;2023-06-26T12:20:42;95468.25;;;34.89;18.76
79612;BME280;69094;48.154;11.536;2023-06-26T12:23:13;95472.19;;;35.42;18.45
79612;BME280;69094;48.154;11.536;2023-06-26T12:25:39;95461.72;;;35.12;18.10
79612;BME280;69094;48.154;11.536;2023-06-26T12:28:17;95467.09;;;34.66;19.00
79612;BME280;69094;48.154;11.536;2023-06-26T12:30:47;95458.19;;;34.43;19.14
79612;BME280;69094;48.154;11.536;2023-06-26T12:33:14;95464.16;;;34.90;18.75
79612;BME280;69094;48.154;11.536;2023-06-26T12:35:40;95456.72;;;35.07;17.58
79612;BME280;69094;48.154;11.536;2023-06-26T12:38:07;95460.34;;;34.63;18.34
79612;BME280;69094;48.154;11.536;2023-06-26T12:40:35;95462.75;;;34.41;18.14
79612;BME280;69094;48.154;11.536;2023-06-26T12:43:02;95454.97;;;34.36;19.23
79612;BME280;69094;48.154;11.536;2023-06-26T12:45:37;95462.31;;;34.72;19.21
79612;BME280;69094;48.154;11.536;2023-06-26T12:48:12;95459.78;;;34.59;18.69
79612;BME280;69094;48.154;11.536;2023-06-26T12:50:44;95445.00;;;32.96;20.33
79612;BME280;69094;48.154;11.536;2023-06-26T12:53:10;95456.72;;;31.96;21.59